createdAt,value
2023-02-19T00:00:22.324Z,16.5
2023-02-19T00:01:20.808Z,16.45
2023-02-19T00:02:20.886Z,16.44
2023-02-19T00:03:21.180Z,16.44
2023-02-19T00:04:20.974Z,16.43
2023-02-19T00:05:20.693Z,16.42
2023-02-19T00:06:20.431Z,16.47
2023-02-19T00:07:20.256Z,16.46
2023-02-19T00:08:20.908Z,16.52
2023-02-19T00:09:20.474Z,16.55
2023-02-19T00:10:20.976Z,16.49
2023-02-19T00:11:20.451Z,16.45
2023-02-19T00:12:21.523Z,16.32
2023-02-19T00:13:20.745Z,16.36
2023-02-19T00:14:20.132Z,16.42
2023-02-19T00:15:20.694Z,16.40
2023-02-19T00:16:20.667Z,16.41
2023-02-19T00:17:20.500Z,16.36
2023-02-19T00:18:20.524Z,16.28
2023-02-19T00:19:20.277Z,16.26
2023-02-19T00:20:20.244Z,16.20
2023-02-19T00:21:21.752Z,16.15
2023-02-19T00:22:20.192Z,16.13
2023-02-19T00:23:20.925Z,16.18
2023-02-19T00:24:20.076Z,16.15
2023-02-19T00:25:20.756Z,16.14
2023-02-19T00:26:22.253Z,16.17
2023-02-19T00:27:20.549Z,16.20
2023-02-19T00:28:18.397Z,16.20
2023-02-19T00:29:20.713Z,16.11
2023-02-19T00:30:21.075Z,16.21
2023-02-19T00:31:20.676Z,16.23
2023-02-19T00:32:21.321Z,16.21
2023-02-19T00:33:20.806Z,16.24
2023-02-19T00:34:20.661Z,16.28
2023-02-19T00:35:20.315Z,16.26
2023-02-19T00:36:20.457Z,16.29
2023-02-19T00:37:21.142Z,16.32
2023-02-19T00:38:20.433Z,16.24
2023-02-19T00:39:20.977Z,16.19
2023-02-19T00:40:20.606Z,16.21
2023-02-19T00:41:19.861Z,16.28
2023-02-19T00:42:20.773Z,16.26
2023-02-19T00:43:20.717Z,16.33
2023-02-19T00:44:20.189Z,16.35
2023-02-19T00:45:21.371Z,16.32
2023-02-19T00:46:21.147Z,16.30
2023-02-19T00:47:20.424Z,16.42
2023-02-19T00:48:21.143Z,16.48
2023-02-19T00:49:20.471Z,16.51
2023-02-19T00:50:21.240Z,16.53
2023-02-19T00:51:20.669Z,16.42
2023-02-19T00:52:20.429Z,16.40
2023-02-19T00:53:21.089Z,16.51
2023-02-19T00:54:20.436Z,16.60
2023-02-19T00:55:20.356Z,16.65
2023-02-19T00:56:20.581Z,16.70
2023-02-19T00:57:20.505Z,16.73
2023-02-19T00:58:21.017Z,16.77
2023-02-19T00:59:20.809Z,16.77
2023-02-19T01:00:40.858Z,16.81
2023-02-19T01:01:23.967Z,16.80
2023-02-19T01:02:21.333Z,16.77
2023-02-19T01:03:20.920Z,16.80
2023-02-19T01:04:20.400Z,16.82
2023-02-19T01:05:20.323Z,16.89
2023-02-19T01:06:21.532Z,16.89
2023-02-19T01:07:20.612Z,16.85
2023-02-19T01:08:20.025Z,16.93
2023-02-19T01:09:20.492Z,16.96
2023-02-19T01:10:21.564Z,16.98
2023-02-19T01:11:20.335Z,16.98
2023-02-19T01:12:21.349Z,17
2023-02-19T01:13:20.441Z,17.01
2023-02-19T01:14:19.395Z,16.99
2023-02-19T01:15:19.879Z,16.96
2023-02-19T01:16:21.506Z,16.90
2023-02-19T01:17:20.420Z,16.88
2023-02-19T01:18:21.063Z,16.87
2023-02-19T01:19:20.382Z,16.85
2023-02-19T01:20:20.894Z,16.80
2023-02-19T01:21:20.615Z,16.76
2023-02-19T01:22:20.962Z,16.75
2023-02-19T01:23:20.673Z,16.78
2023-02-19T01:24:20.622Z,16.65
2023-02-19T01:25:20.452Z,16.54
2023-02-19T01:26:20.725Z,16.5
2023-02-19T01:27:20.766Z,16.52
2023-02-19T01:28:20.043Z,16.52
2023-02-19T01:29:20.316Z,16.53
2023-02-19T01:30:21.022Z,16.52
2023-02-19T01:31:20.519Z,16.43
2023-02-19T01:32:20.965Z,16.42
2023-02-19T01:33:20.525Z,16.32
2023-02-19T01:34:20.431Z,16.27
2023-02-19T01:35:21.046Z,16.20
2023-02-19T01:36:20.392Z,16.17
2023-02-19T01:37:20.775Z,16.19
2023-02-19T01:38:20.103Z,16.17
2023-02-19T01:39:20.726Z,16.22
2023-02-19T01:40:20.949Z,16.18
2023-02-19T01:41:20.734Z,16.15
2023-02-19T01:42:20.344Z,16.05
2023-02-19T01:43:20.391Z,15.96
2023-02-19T01:44:20.467Z,16.03
2023-02-19T01:45:21.921Z,16.05
2023-02-19T01:46:20.645Z,16.02
2023-02-19T01:47:19.863Z,16.00
2023-02-19T01:48:20.422Z,16.04
2023-02-19T01:49:20.126Z,15.90
2023-02-19T01:50:21.122Z,15.81
2023-02-19T01:51:20.275Z,15.84
2023-02-19T01:52:20.616Z,15.86
2023-02-19T01:53:20.504Z,15.87
2023-02-19T01:54:20.747Z,15.97
2023-02-19T01:55:20.258Z,15.93
2023-02-19T01:56:20.218Z,15.98
2023-02-19T01:57:20.730Z,16.03
2023-02-19T01:58:21.093Z,16.06
2023-02-19T01:59:20.832Z,16.11
2023-02-19T02:00:22.157Z,16.03
2023-02-19T02:01:21.185Z,15.99
2023-02-19T02:02:20.867Z,15.97
2023-02-19T02:03:21.336Z,15.93
2023-02-19T02:04:20.965Z,15.89
2023-02-19T02:05:20.370Z,15.87
2023-02-19T02:06:20.895Z,15.88
2023-02-19T02:07:21.164Z,15.92
2023-02-19T02:08:20.927Z,15.85
2023-02-19T02:09:20.955Z,15.86
2023-02-19T02:10:20.925Z,15.84
2023-02-19T02:11:20.546Z,15.77
2023-02-19T02:12:20.144Z,15.78
2023-02-19T02:13:20.977Z,15.77
2023-02-19T02:14:20.807Z,15.68
2023-02-19T02:15:21.129Z,15.62
2023-02-19T02:16:20.935Z,15.60
2023-02-19T02:17:20.240Z,15.67
2023-02-19T02:18:20.431Z,15.65
2023-02-19T02:19:20.549Z,15.69
2023-02-19T02:20:20.742Z,15.68
2023-02-19T02:21:20.178Z,15.65
2023-02-19T02:22:20.401Z,15.60
2023-02-19T02:23:20.278Z,15.63
2023-02-19T02:24:20.528Z,15.62
2023-02-19T02:25:21.333Z,15.66
2023-02-19T02:26:21.027Z,15.63
2023-02-19T02:27:20.822Z,15.69
2023-02-19T02:28:20.216Z,15.64
2023-02-19T02:29:20.543Z,15.62
2023-02-19T02:30:21.259Z,15.64
2023-02-19T02:31:21.385Z,15.57
2023-02-19T02:32:21.026Z,15.56
2023-02-19T02:33:21.072Z,15.52
2023-02-19T02:34:20.607Z,15.56
2023-02-19T02:35:21.102Z,15.65
2023-02-19T02:36:20.414Z,15.62
2023-02-19T02:37:20.581Z,15.63
2023-02-19T02:38:20.344Z,15.65
2023-02-19T02:39:20.768Z,15.69
2023-02-19T02:40:20.758Z,15.68
2023-02-19T02:41:21.131Z,15.69
2023-02-19T02:42:21.470Z,15.72
2023-02-19T02:43:20.173Z,15.69
2023-02-19T02:44:20.365Z,15.68
2023-02-19T02:45:21.382Z,15.72
2023-02-19T02:46:20.429Z,15.71
2023-02-19T02:47:21.201Z,15.73
2023-02-19T02:48:20.858Z,15.77
2023-02-19T02:49:20.479Z,15.72
2023-02-19T02:50:21.458Z,15.74
2023-02-19T02:51:20.996Z,15.72
2023-02-19T02:52:19.902Z,15.72
2023-02-19T02:53:21.130Z,15.72
2023-02-19T02:54:20.441Z,15.77
2023-02-19T02:55:21.026Z,15.74
2023-02-19T02:56:20.406Z,15.72
2023-02-19T02:57:20.634Z,15.75
2023-02-19T02:58:21.184Z,15.78
2023-02-19T02:59:21.475Z,15.75
2023-02-19T03:00:22.406Z,15.72
2023-02-19T03:01:21.060Z,15.68
2023-02-19T03:02:20.347Z,15.68
2023-02-19T03:03:20.659Z,15.62
2023-02-19T03:04:21.057Z,15.63
2023-02-19T03:05:20.826Z,15.64
2023-02-19T03:06:21.613Z,15.60
2023-02-19T03:07:21.297Z,15.60
2023-02-19T03:08:20.696Z,15.58
2023-02-19T03:09:19.919Z,15.57
2023-02-19T03:10:21.002Z,15.57
2023-02-19T03:11:20.323Z,15.60
2023-02-19T03:12:20.223Z,15.60
2023-02-19T03:13:20.464Z,15.56
2023-02-19T03:14:20.750Z,15.53
2023-02-19T03:15:20.658Z,15.57
2023-02-19T03:16:20.466Z,15.60
2023-02-19T03:17:21.089Z,15.53
2023-02-19T03:18:20.575Z,15.52
2023-02-19T03:19:20.756Z,15.51
2023-02-19T03:20:20.982Z,15.51
2023-02-19T03:21:20.923Z,15.52
2023-02-19T03:22:20.610Z,15.53
2023-02-19T03:23:21.411Z,15.47
2023-02-19T03:24:20.874Z,15.47
2023-02-19T03:25:20.816Z,15.48
2023-02-19T03:26:20.559Z,15.47
2023-02-19T03:27:21.255Z,15.45
2023-02-19T03:28:21.170Z,15.47
2023-02-19T03:29:20.642Z,15.43
2023-02-19T03:30:21.438Z,15.48
2023-02-19T03:31:20.964Z,15.48
2023-02-19T03:32:20.851Z,15.47
2023-02-19T03:33:20.213Z,15.51
2023-02-19T03:34:20.621Z,15.5
2023-02-19T03:35:21.331Z,15.55
2023-02-19T03:36:21.026Z,15.54
2023-02-19T03:37:20.947Z,15.53
2023-02-19T03:38:20.669Z,15.56
2023-02-19T03:39:20.982Z,15.55
2023-02-19T03:40:20.546Z,15.56
2023-02-19T03:41:21.289Z,15.60
2023-02-19T03:42:20.795Z,15.59
2023-02-19T03:43:20.583Z,15.57
2023-02-19T03:44:21.180Z,15.52
2023-02-19T03:45:21.586Z,15.52
2023-02-19T03:46:21.304Z,15.55
2023-02-19T03:47:20.586Z,15.53
2023-02-19T03:48:20.994Z,15.48
2023-02-19T03:49:20.884Z,15.5
2023-02-19T03:50:20.438Z,15.49
2023-02-19T03:51:20.621Z,15.46
2023-02-19T03:52:20.002Z,15.43
2023-02-19T03:53:20.996Z,15.53
2023-02-19T03:54:21.289Z,15.56
2023-02-19T03:55:21.177Z,15.54
2023-02-19T03:56:21.255Z,15.51
2023-02-19T03:57:21.274Z,15.49
2023-02-19T03:58:20.895Z,15.51
2023-02-19T03:59:20.470Z,15.52
2023-02-19T04:00:22.507Z,15.45
2023-02-19T04:01:21.487Z,15.51
2023-02-19T04:02:21.452Z,15.55
2023-02-19T04:03:21.318Z,15.56
2023-02-19T04:04:21.540Z,15.56
2023-02-19T04:05:21.334Z,15.55
2023-02-19T04:06:20.879Z,15.52
2023-02-19T04:07:20.469Z,15.51
2023-02-19T04:08:20.477Z,15.52
2023-02-19T04:09:20.866Z,15.5
2023-02-19T04:10:20.647Z,15.52
2023-02-19T04:11:20.924Z,15.55
2023-02-19T04:12:20.308Z,15.54
2023-02-19T04:13:20.278Z,15.52
2023-02-19T04:14:20.610Z,15.48
2023-02-19T04:15:21.321Z,15.52
2023-02-19T04:16:20.990Z,15.56
2023-02-19T04:17:21.038Z,15.56
2023-02-19T04:18:21.188Z,15.56
2023-02-19T04:19:20.662Z,15.53
2023-02-19T04:20:21.215Z,15.55
2023-02-19T04:21:20.425Z,15.59
2023-02-19T04:22:21.134Z,15.60
2023-02-19T04:23:21.300Z,15.56
2023-02-19T04:24:20.951Z,15.53
2023-02-19T04:25:21.119Z,15.50
2023-02-19T04:26:20.652Z,15.55
2023-02-19T04:27:21.252Z,15.50
2023-02-19T04:28:20.044Z,15.52
2023-02-19T04:29:20.693Z,15.53
2023-02-19T04:30:21.707Z,15.5
2023-02-19T04:31:20.884Z,15.50
2023-02-19T04:32:20.437Z,15.52
2023-02-19T04:33:20.391Z,15.43
2023-02-19T04:34:20.842Z,15.43
2023-02-19T04:35:19.948Z,15.46
2023-02-19T04:36:20.840Z,15.46
2023-02-19T04:37:20.332Z,15.43
2023-02-19T04:38:21.280Z,15.39
2023-02-19T04:39:20.836Z,15.37
2023-02-19T04:40:21.604Z,15.38
2023-02-19T04:41:20.326Z,15.44
2023-02-19T04:42:20.357Z,15.43
2023-02-19T04:43:21.219Z,15.41
2023-02-19T04:44:20.303Z,15.41
2023-02-19T04:45:21.179Z,15.40
2023-02-19T04:46:21.143Z,15.31
2023-02-19T04:47:20.929Z,15.33
2023-02-19T04:48:21.075Z,15.33
2023-02-19T04:49:20.771Z,15.38
2023-02-19T04:50:21.597Z,15.41
2023-02-19T04:51:20.832Z,15.38
2023-02-19T04:52:20.533Z,15.36
2023-02-19T04:53:20.617Z,15.35
2023-02-19T04:54:20.957Z,15.35
2023-02-19T04:55:21.284Z,15.33
2023-02-19T04:56:21.188Z,15.36
2023-02-19T04:57:20.238Z,15.39
2023-02-19T04:58:20.651Z,15.37
2023-02-19T04:59:20.489Z,15.39
2023-02-19T05:00:21.779Z,15.38
2023-02-19T05:01:20.539Z,15.32
2023-02-19T05:02:20.370Z,15.27
2023-02-19T05:03:21.009Z,15.30
2023-02-19T05:04:20.509Z,15.35
2023-02-19T05:05:21.088Z,15.31
2023-02-19T05:06:20.416Z,15.27
2023-02-19T05:07:21.316Z,15.31
2023-02-19T05:08:20.661Z,15.31
2023-02-19T05:09:20.712Z,15.28
2023-02-19T05:10:20.571Z,15.34
2023-02-19T05:11:20.289Z,15.30
2023-02-19T05:12:20.855Z,15.31
2023-02-19T05:13:20.987Z,15.39
2023-02-19T05:14:20.660Z,15.43
2023-02-19T05:15:21.117Z,15.44
2023-02-19T05:16:20.226Z,15.39
2023-02-19T05:17:20.705Z,15.47
2023-02-19T05:18:20.459Z,15.47
2023-02-19T05:19:20.717Z,15.48
2023-02-19T05:20:20.615Z,15.47
2023-02-19T05:21:20.003Z,15.43
2023-02-19T05:22:20.500Z,15.44
2023-02-19T05:23:20.179Z,15.44
2023-02-19T05:24:20.461Z,15.44
2023-02-19T05:25:21.018Z,15.40
2023-02-19T05:26:20.292Z,15.39
2023-02-19T05:27:20.815Z,15.41
2023-02-19T05:28:20.154Z,15.38
2023-02-19T05:29:20.485Z,15.42
2023-02-19T05:30:20.957Z,15.45
2023-02-19T05:31:20.811Z,15.44
2023-02-19T05:32:20.558Z,15.51
2023-02-19T05:33:21.117Z,15.52
2023-02-19T05:34:21.015Z,15.47
2023-02-19T05:35:20.285Z,15.47
2023-02-19T05:36:20.548Z,15.43
2023-02-19T05:37:20.348Z,15.46
2023-02-19T05:38:20.574Z,15.52
2023-02-19T05:39:20.988Z,15.44
2023-02-19T05:40:21.038Z,15.39
2023-02-19T05:41:20.402Z,15.34
2023-02-19T05:42:20.983Z,15.34
2023-02-19T05:43:19.982Z,15.40
2023-02-19T05:44:20.157Z,15.39
2023-02-19T05:45:21.421Z,15.33
2023-02-19T05:46:20.455Z,15.32
2023-02-19T05:47:20.827Z,15.37
2023-02-19T05:48:20.452Z,15.37
2023-02-19T05:49:20.004Z,15.33
2023-02-19T05:50:20.798Z,15.33
2023-02-19T05:51:20.802Z,15.31
2023-02-19T05:52:39.647Z,15.27
2023-02-19T05:53:20.844Z,15.30
2023-02-19T05:54:20.655Z,15.29
2023-02-19T05:55:20.457Z,15.27
2023-02-19T05:56:21.101Z,15.32
2023-02-19T05:57:21.245Z,15.28
2023-02-19T05:58:21.143Z,15.28
2023-02-19T05:59:20.656Z,15.27
2023-02-19T06:00:22.602Z,15.23
2023-02-19T06:01:21.038Z,15.25
2023-02-19T06:02:42.509Z,15.27
2023-02-19T06:03:21.102Z,15.30
2023-02-19T06:04:20.729Z,15.34
2023-02-19T06:05:20.609Z,15.24
2023-02-19T06:06:20.606Z,15.17
2023-02-19T06:07:20.603Z,15.17
2023-02-19T06:08:20.392Z,15.18
2023-02-19T06:09:20.902Z,15.20
2023-02-19T06:10:20.897Z,15.18
2023-02-19T06:11:20.608Z,15.17
2023-02-19T06:13:20.881Z,15.19
2023-02-19T06:14:21.750Z,15.20
2023-02-19T06:15:21.540Z,15.25
2023-02-19T06:16:20.403Z,15.26
2023-02-19T06:17:21.115Z,15.20
2023-02-19T06:18:21.118Z,15.15
2023-02-19T06:19:20.638Z,15.10
2023-02-19T06:20:21.072Z,15.09
2023-02-19T06:21:20.579Z,15.10
2023-02-19T06:22:21.072Z,15.10
2023-02-19T06:23:20.947Z,15.11
2023-02-19T06:24:20.766Z,15.12
2023-02-19T06:25:21.192Z,15.10
2023-02-19T06:26:20.865Z,15.06
2023-02-19T06:27:20.330Z,15.05
2023-02-19T06:28:20.712Z,15.06
2023-02-19T06:29:20.616Z,15.03
2023-02-19T06:30:20.649Z,15.03
2023-02-19T06:31:20.750Z,15.07
2023-02-19T06:32:21.209Z,15.01
2023-02-19T06:33:20.797Z,15.09
2023-02-19T06:34:20.538Z,15.03
2023-02-19T06:35:20.592Z,15.02
2023-02-19T06:36:21.556Z,15.01
2023-02-19T06:37:20.843Z,14.96
2023-02-19T06:38:21.375Z,14.95
2023-02-19T06:39:21.015Z,14.96
2023-02-19T06:40:21.570Z,14.93
2023-02-19T06:41:21.123Z,14.97
2023-02-19T06:42:20.538Z,15.01
2023-02-19T06:43:21.559Z,14.99
2023-02-19T06:44:20.592Z,15
2023-02-19T06:45:21.496Z,15.02
2023-02-19T06:46:21.583Z,14.98
2023-02-19T06:47:20.861Z,14.97
2023-02-19T06:48:20.985Z,14.97
2023-02-19T06:49:21.406Z,14.93
2023-02-19T06:50:21.708Z,14.97
2023-02-19T06:51:20.657Z,14.96
2023-02-19T06:52:21.102Z,15.08
2023-02-19T06:53:20.559Z,15.08
2023-02-19T06:54:20.386Z,15.06
2023-02-19T06:55:20.365Z,15.06
2023-02-19T06:56:20.419Z,15.05
2023-02-19T06:57:20.290Z,15.05
2023-02-19T06:58:21.442Z,15.05
2023-02-19T06:59:20.494Z,15.06
2023-02-19T07:00:22.535Z,15.06
2023-02-19T07:01:21.576Z,15.02
2023-02-19T07:02:20.667Z,15.10
2023-02-19T07:03:21.108Z,15.10
2023-02-19T07:04:20.762Z,15.05
2023-02-19T07:05:22.040Z,15.20
2023-02-19T07:06:21.689Z,15.22
2023-02-19T07:07:21.294Z,15.21
2023-02-19T07:08:22.777Z,15.22
2023-02-19T07:09:22.226Z,15.21
2023-02-19T07:10:23.142Z,15.23
2023-02-19T07:11:21.345Z,15.22
2023-02-19T07:12:21.173Z,15.18
2023-02-19T07:13:21.333Z,15.22
2023-02-19T07:14:21.378Z,15.25
2023-02-19T07:15:20.832Z,15.26
2023-02-19T07:16:22.217Z,15.26
2023-02-19T07:17:20.983Z,15.32
2023-02-19T07:18:21.387Z,15.31
2023-02-19T07:19:20.827Z,15.27
2023-02-19T07:20:21.142Z,15.25
2023-02-19T07:21:21.675Z,15.28
2023-02-19T07:22:20.571Z,15.39
2023-02-19T07:23:20.759Z,15.43
2023-02-19T07:24:21.275Z,15.34
2023-02-19T07:25:21.287Z,15.28
2023-02-19T07:26:20.753Z,15.28
2023-02-19T07:27:21.301Z,15.28
2023-02-19T07:28:21.090Z,15.35
2023-02-19T07:29:21.165Z,15.38
2023-02-19T07:30:22.226Z,15.38
2023-02-19T07:31:21.681Z,15.43
2023-02-19T07:32:21.747Z,15.47
2023-02-19T07:33:21.461Z,15.50
2023-02-19T07:34:21.471Z,15.48
2023-02-19T07:35:20.751Z,15.51
2023-02-19T07:36:21.604Z,15.44
2023-02-19T07:37:21.600Z,15.47
2023-02-19T07:38:21.493Z,15.51
2023-02-19T07:39:21.532Z,15.50
2023-02-19T07:40:21.784Z,15.48
2023-02-19T07:41:21.178Z,15.58
2023-02-19T07:42:21.469Z,15.60
2023-02-19T07:43:21.645Z,15.59
2023-02-19T07:44:21.476Z,15.59
2023-02-19T07:45:21.907Z,15.47
2023-02-19T07:46:21.454Z,15.55
2023-02-19T07:47:21.629Z,15.56
2023-02-19T07:48:21.563Z,15.53
2023-02-19T07:49:21.258Z,15.56
2023-02-19T07:50:21.569Z,15.64
2023-02-19T07:51:26.310Z,15.64
2023-02-19T07:52:21.280Z,15.64
2023-02-19T07:53:21.383Z,15.59
2023-02-19T07:54:21.033Z,15.57
2023-02-19T07:55:21.802Z,15.56
2023-02-19T07:56:21.398Z,15.54
2023-02-19T07:57:21.583Z,15.57
2023-02-19T07:58:20.619Z,15.55
2023-02-19T07:59:20.677Z,15.54
2023-02-19T08:00:22.793Z,15.55
2023-02-19T08:01:22.122Z,15.53
2023-02-19T08:02:21.799Z,15.58
2023-02-19T08:03:21.566Z,15.65
2023-02-19T08:04:21.695Z,15.64
2023-02-19T08:05:21.965Z,15.63
2023-02-19T08:06:21.823Z,15.64
2023-02-19T08:07:22.043Z,15.65
2023-02-19T08:08:21.566Z,15.63
2023-02-19T08:09:21.455Z,15.64
2023-02-19T08:10:21.419Z,15.64
2023-02-19T08:11:21.248Z,15.64
2023-02-19T08:12:21.100Z,15.63
2023-02-19T08:13:21.095Z,15.64
2023-02-19T08:14:20.746Z,15.63
2023-02-19T08:15:22.477Z,15.64
2023-02-19T08:16:33.182Z,15.63
2023-02-19T08:17:21.834Z,15.72
2023-02-19T08:18:22.241Z,15.74
2023-02-19T08:19:21.098Z,15.77
2023-02-19T08:20:21.958Z,15.80
2023-02-19T08:21:21.586Z,15.79
2023-02-19T08:22:21.358Z,15.87
2023-02-19T08:23:21.821Z,15.90
2023-02-19T08:24:21.448Z,15.87
2023-02-19T08:25:21.370Z,15.84
2023-02-19T08:26:20.985Z,15.89
2023-02-19T08:27:21.445Z,15.92
2023-02-19T08:28:21.367Z,15.93
2023-02-19T08:29:20.908Z,15.85
2023-02-19T08:30:22.275Z,15.85
2023-02-19T08:31:21.480Z,15.92
2023-02-19T08:32:21.377Z,15.95
2023-02-19T08:33:20.350Z,15.96
2023-02-19T08:34:20.751Z,15.92
2023-02-19T08:35:21.489Z,15.94
2023-02-19T08:36:21.169Z,15.97
2023-02-19T08:37:21.525Z,15.95
2023-02-19T08:38:21.118Z,15.90
2023-02-19T08:39:21.937Z,15.97
2023-02-19T08:40:22.300Z,15.99
2023-02-19T08:41:20.956Z,16
2023-02-19T08:42:21.340Z,16.04
2023-02-19T08:43:21.629Z,16.03
2023-02-19T08:44:21.512Z,15.98
2023-02-19T08:45:22.499Z,15.98
2023-02-19T08:46:21.829Z,15.99
2023-02-19T08:47:21.552Z,16.04
2023-02-19T08:48:21.678Z,16.04
2023-02-19T08:49:21.298Z,16.07
2023-02-19T08:50:21.565Z,16.04
2023-02-19T08:51:21.134Z,16.06
2023-02-19T08:52:20.887Z,16.05
2023-02-19T08:53:21.174Z,16.05
2023-02-19T08:54:21.269Z,16.04
2023-02-19T08:55:21.382Z,16.05
2023-02-19T08:56:21.794Z,16.06
2023-02-19T08:57:21.120Z,16.07
2023-02-19T08:58:21.967Z,16.07
2023-02-19T08:59:21.924Z,16.10
2023-02-19T09:00:22.832Z,16.13
2023-02-19T09:01:22.079Z,16.16
2023-02-19T09:02:21.237Z,16.21
2023-02-19T09:03:21.903Z,16.22
2023-02-19T09:04:21.425Z,16.22
2023-02-19T09:05:21.906Z,16.20
2023-02-19T09:06:21.631Z,16.21
2023-02-19T09:07:21.671Z,16.26
2023-02-19T09:08:21.757Z,16.26
2023-02-19T09:09:21.837Z,16.29
2023-02-19T09:10:22.378Z,16.27
2023-02-19T09:11:20.971Z,16.25
2023-02-19T09:12:21.553Z,16.24
2023-02-19T09:13:21.287Z,16.26
2023-02-19T09:14:21.204Z,16.24
2023-02-19T09:15:21.711Z,16.19
2023-02-19T09:16:21.645Z,16.20
2023-02-19T09:17:22.081Z,16.21
2023-02-19T09:18:21.293Z,16.20
2023-02-19T09:19:21.256Z,16.20
2023-02-19T09:20:21.896Z,16.21
2023-02-19T09:21:21.158Z,16.17
2023-02-19T09:22:21.157Z,16.19
2023-02-19T09:23:21.080Z,16.25
2023-02-19T09:24:21.029Z,16.25
2023-02-19T09:25:21.391Z,16.29
2023-02-19T09:26:21.789Z,16.30
2023-02-19T09:27:21.473Z,16.34
2023-02-19T09:28:22.198Z,16.29
2023-02-19T09:29:21.524Z,16.28
2023-02-19T09:30:21.960Z,16.29
2023-02-19T09:31:21.948Z,16.29
2023-02-19T09:32:21.725Z,16.32
2023-02-19T09:33:21.916Z,16.39
2023-02-19T09:34:22.332Z,16.40
2023-02-19T09:35:22.110Z,16.42
2023-02-19T09:36:21.402Z,16.42
2023-02-19T09:37:21.594Z,16.42
2023-02-19T09:38:22.058Z,16.48
2023-02-19T09:39:21.639Z,16.51
2023-02-19T09:40:21.947Z,16.52
2023-02-19T09:41:22.235Z,16.61
2023-02-19T09:42:20.996Z,16.67
2023-02-19T09:43:22.338Z,16.68
2023-02-19T09:44:21.658Z,16.68
2023-02-19T09:45:22.382Z,16.69
2023-02-19T09:46:21.214Z,16.73
2023-02-19T09:47:21.080Z,16.70
2023-02-19T09:48:21.200Z,16.76
2023-02-19T09:49:21.828Z,16.81
2023-02-19T09:50:21.337Z,16.79
2023-02-19T09:51:21.620Z,16.86
2023-02-19T09:52:21.473Z,16.91
2023-02-19T09:53:22.117Z,16.94
2023-02-19T09:54:21.959Z,16.94
2023-02-19T09:55:22.022Z,16.94
2023-02-19T09:56:21.842Z,16.96
2023-02-19T09:57:21.525Z,16.98
2023-02-19T09:58:21.326Z,17.01
2023-02-19T09:59:21.349Z,17.03
2023-02-19T10:00:22.437Z,17.02
2023-02-19T10:01:21.682Z,17.02
2023-02-19T10:02:21.839Z,17.06
2023-02-19T10:03:21.311Z,17.07
2023-02-19T10:04:21.778Z,17.10
2023-02-19T10:05:21.452Z,17.11
2023-02-19T10:06:21.944Z,17.10
2023-02-19T10:07:21.505Z,17.12
2023-02-19T10:08:22.470Z,17.11
2023-02-19T10:09:21.839Z,17.12
2023-02-19T10:10:21.116Z,17.10
2023-02-19T10:11:21.516Z,17.14
2023-02-19T10:12:21.796Z,17.15
2023-02-19T10:13:21.317Z,17.21
2023-02-19T10:14:21.868Z,17.16
2023-02-19T10:15:22.337Z,17.12
2023-02-19T10:16:22.479Z,17.13
2023-02-19T10:17:21.142Z,17.20
2023-02-19T10:18:21.486Z,17.25
2023-02-19T10:19:21.454Z,17.24
2023-02-19T10:20:22.332Z,17.22
2023-02-19T10:21:22.051Z,17.28
2023-02-19T10:22:22.029Z,17.32
2023-02-19T10:23:22.028Z,17.29
2023-02-19T10:24:21.942Z,17.22
2023-02-19T10:25:21.927Z,17.24
2023-02-19T10:26:21.688Z,17.32
2023-02-19T10:27:21.516Z,17.46
2023-02-19T10:28:21.710Z,17.48
2023-02-19T10:29:21.938Z,17.46
2023-02-19T10:30:22.013Z,17.50
2023-02-19T10:31:22.002Z,17.55
2023-02-19T10:32:21.595Z,17.56
2023-02-19T10:33:21.712Z,17.59
2023-02-19T10:34:22.284Z,17.67
2023-02-19T10:35:21.542Z,17.68
2023-02-19T10:36:19.983Z,17.67
2023-02-19T10:37:21.793Z,17.67
2023-02-19T10:38:21.919Z,17.67
2023-02-19T10:39:21.085Z,17.70
2023-02-19T10:40:40.694Z,17.77
2023-02-19T10:41:20.876Z,17.78
2023-02-19T10:42:20.878Z,17.78
2023-02-19T10:43:21.305Z,17.78
2023-02-19T10:44:21.385Z,17.75
2023-02-19T10:45:21.992Z,17.72
2023-02-19T10:46:21.659Z,17.69
2023-02-19T10:47:21.456Z,17.66
2023-02-19T10:48:22.100Z,17.70
2023-02-19T10:49:21.680Z,17.65
2023-02-19T10:50:22.484Z,17.64
2023-02-19T10:51:22.076Z,17.56
2023-02-19T10:52:21.841Z,17.47
2023-02-19T10:53:21.517Z,17.57
2023-02-19T10:54:21.556Z,17.57
2023-02-19T10:55:21.771Z,17.54
2023-02-19T10:56:21.611Z,17.51
2023-02-19T10:57:21.608Z,17.54
2023-02-19T10:58:22.030Z,17.51
2023-02-19T10:59:21.157Z,17.54
2023-02-19T11:00:23.004Z,17.56
2023-02-19T11:01:22.316Z,17.59
2023-02-19T11:02:21.317Z,17.51
2023-02-19T11:03:22.325Z,17.53
2023-02-19T11:04:21.673Z,17.60
2023-02-19T11:05:23.126Z,17.56
2023-02-19T11:06:22.120Z,17.52
2023-02-19T11:07:23.003Z,17.54
2023-02-19T11:08:23.321Z,17.59
2023-02-19T11:09:22.518Z,17.56
2023-02-19T11:10:24.102Z,17.57
2023-02-19T11:11:22.726Z,17.55
2023-02-19T11:12:22.411Z,17.51
2023-02-19T11:13:22.228Z,17.50
2023-02-19T11:14:21.290Z,17.43
2023-02-19T11:15:21.726Z,17.33
2023-02-19T11:16:21.828Z,17.25
2023-02-19T11:17:21.930Z,17.07
2023-02-19T11:18:22.172Z,16.98
2023-02-19T11:19:21.473Z,17.03
2023-02-19T11:20:21.695Z,16.97
2023-02-19T11:21:21.929Z,16.93
2023-02-19T11:22:21.664Z,16.79
2023-02-19T11:23:22.146Z,16.73
2023-02-19T11:24:21.682Z,16.61
2023-02-19T11:25:22.432Z,16.57
2023-02-19T11:26:21.448Z,16.59
2023-02-19T11:27:21.913Z,16.64
2023-02-19T11:28:22.239Z,16.61
2023-02-19T11:29:21.563Z,16.59
2023-02-19T11:30:23.197Z,16.52
2023-02-19T11:31:22.114Z,16.54
2023-02-19T11:32:22.274Z,16.55
2023-02-19T11:33:21.809Z,16.61
2023-02-19T11:34:22.122Z,16.64
2023-02-19T11:35:21.673Z,16.66
2023-02-19T11:36:21.705Z,16.75
2023-02-19T11:37:22.046Z,16.76
2023-02-19T11:38:22.287Z,16.83
2023-02-19T11:39:21.654Z,16.79
2023-02-19T11:40:21.956Z,16.78
2023-02-19T11:41:21.292Z,16.75
2023-02-19T11:42:21.909Z,16.74
2023-02-19T11:43:22.240Z,16.74
2023-02-19T11:44:21.752Z,16.80
2023-02-19T11:45:22.959Z,16.86
2023-02-19T11:46:21.951Z,16.90
2023-02-19T11:47:21.438Z,16.89
2023-02-19T11:48:22.031Z,16.91
2023-02-19T11:49:20.892Z,16.98
2023-02-19T11:50:21.536Z,17.04
2023-02-19T11:51:21.576Z,17.08
2023-02-19T11:52:21.626Z,17.18
2023-02-19T11:53:21.088Z,17.18
2023-02-19T11:54:21.559Z,17.12
2023-02-19T11:55:21.978Z,17.11
2023-02-19T11:56:21.979Z,17.13
2023-02-19T11:57:22.413Z,17.09
2023-02-19T11:58:21.788Z,17.17
2023-02-19T11:59:21.929Z,17.28
2023-02-19T12:00:22.484Z,17.31
2023-02-19T12:01:22.348Z,17.29
2023-02-19T12:02:22.622Z,17.33
2023-02-19T12:03:22.184Z,17.38
2023-02-19T12:04:22.649Z,17.40
2023-02-19T12:05:22.812Z,17.42
2023-02-19T12:06:22.508Z,17.46
2023-02-19T12:07:23.133Z,17.46
2023-02-19T12:08:22.284Z,17.46
2023-02-19T12:09:22.494Z,17.47
2023-02-19T12:10:22.048Z,17.44
2023-02-19T12:11:21.751Z,17.45
2023-02-19T12:12:21.921Z,17.42
2023-02-19T12:13:22.061Z,17.43
2023-02-19T12:14:21.097Z,17.44
2023-02-19T12:15:22.584Z,17.35
2023-02-19T12:16:22.160Z,17.28
2023-02-19T12:17:21.728Z,17.30
2023-02-19T12:18:21.552Z,17.26
2023-02-19T12:19:22.019Z,17.22
2023-02-19T12:20:22.235Z,17.15
2023-02-19T12:21:21.992Z,17.11
2023-02-19T12:22:22.038Z,17.01
2023-02-19T12:23:22.584Z,16.88
2023-02-19T12:24:22.980Z,16.75
2023-02-19T12:25:22.124Z,16.70
2023-02-19T12:26:22.282Z,16.65
2023-02-19T12:27:22.029Z,16.67
2023-02-19T12:28:21.576Z,16.65
2023-02-19T12:29:21.852Z,16.55
2023-02-19T12:30:22.669Z,16.55
2023-02-19T12:31:21.772Z,16.58
2023-02-19T12:32:21.313Z,16.60
2023-02-19T12:33:22.325Z,16.56
2023-02-19T12:34:21.501Z,16.56
2023-02-19T12:35:23.092Z,16.59
2023-02-19T12:36:21.360Z,16.57
2023-02-19T12:37:21.848Z,16.60
2023-02-19T12:38:21.777Z,16.63
2023-02-19T12:39:22.085Z,16.65
2023-02-19T12:40:21.998Z,16.65
2023-02-19T12:41:22.077Z,16.63
2023-02-19T12:42:22.100Z,16.64
2023-02-19T12:43:21.390Z,16.72
2023-02-19T12:44:21.693Z,16.70
2023-02-19T12:45:21.845Z,16.69
2023-02-19T12:46:22.207Z,16.65
2023-02-19T12:47:22.191Z,16.60
2023-02-19T12:48:22.157Z,16.52
2023-02-19T12:49:30.163Z,16.43
2023-02-19T12:50:22.392Z,16.39
2023-02-19T12:51:21.977Z,16.35
2023-02-19T12:52:22.200Z,16.35
2023-02-19T12:53:21.974Z,16.28
2023-02-19T12:54:22.077Z,16.19